Time;durP1;ratioP1;P1;durP2;ratioP2;P2;SDS_P1;SDS_P2;PMS_P1;PMS_P2;Temp;Humidity;BMP_temperature;BMP_pressure;BME280_temperature;BME280_humidity;BME280_pressure;Samples;Min_cycle;Max_cycle;Signal;HPM_P1;HPM_P2
2022/08/22 00:00:10;;;;;;;7.57;6.10;;;;;18.60;98730.00;;;;16721083;28;20225;-48
2022/08/22 00:08:18;;;;;;;7.87;5.90;;;;;17.80;98724.00;;;;16720901;28;20224;-48
2022/08/22 00:16:25;;;;;;;7.17;5.50;;;;;17.80;98725.00;;;;16719900;28;20302;-48
2022/08/22 00:24:34;;;;;;;7.50;5.43;;;;;17.50;98735.00;;;;16719563;28;20607;-48
2022/08/22 00:32:41;;;;;;;6.50;5.90;;;;;17.60;98723.00;;;;16719592;28;20220;-48
2022/08/22 00:40:56;;;;;;;7.47;6.73;;;;;17.90;98724.00;;;;16719583;28;20518;-48
2022/08/22 00:49:11;;;;;;;6.67;6.10;;;;;17.20;98725.00;;;;16717812;28;20308;-48
2022/08/22 00:57:38;;;;;;;7.80;6.80;;;;;17.10;98715.00;;;;16717624;28;20205;-48
2022/08/22 01:05:50;;;;;;;8.10;7.30;;;;;17.40;98716.00;;;;16718063;28;20675;-48
2022/08/22 01:14:03;;;;;;;8.70;7.30;;;;;17.60;98708.00;;;;16717544;28;20308;-48
2022/08/22 01:22:46;;;;;;;8.23;7.00;;;;;17.30;98710.00;;;;16717756;28;20225;-48
2022/08/22 01:31:29;;;;;;;8.93;6.80;;;;;16.90;98711.00;;;;16712543;28;20222;-48
2022/08/22 01:39:45;;;;;;;8.00;7.30;;;;;17.10;98697.00;;;;16722112;28;20323;-48
2022/08/22 01:47:52;;;;;;;10.80;7.47;;;;;16.70;98708.00;;;;16729767;28;20821;-47
2022/08/22 01:56:03;;;;;;;7.97;7.27;;;;;17.40;98716.00;;;;16729123;28;20209;-48
2022/08/22 02:04:09;;;;;;;7.03;6.33;;;;;17.90;98717.00;;;;16728262;28;20233;-48
2022/08/22 02:12:26;;;;;;;8.67;6.87;;;;;18.30;98714.00;;;;16727150;28;20213;-48
2022/08/22 02:20:32;;;;;;;8.23;7.43;;;;;17.20;98717.00;;;;16720388;28;20296;-47
2022/08/22 02:28:41;;;;;;;8.90;7.43;;;;;17.80;98711.00;;;;16727394;28;20494;-48
2022/08/22 02:36:47;;;;;;;8.23;7.43;;;;;17.60;98720.00;;;;16726468;28;20231;-48
2022/08/22 02:45:03;;;;;;;8.73;6.50;;;;;16.50;98719.00;;;;16731532;28;20307;-48
2022/08/22 02:53:11;;;;;;;7.73;7.03;;;;;17.40;98705.00;;;;16725757;28;20253;-49
2022/08/22 03:01:23;;;;;;;8.30;7.60;;;;;17.50;98707.00;;;;16726173;28;20311;-49
2022/08/22 03:09:29;;;;;;;8.00;7.20;;;;;17.30;98703.00;;;;16725745;28;20304;-48
2022/08/22 03:17:37;;;;;;;8.03;7.23;;;;;17.70;98703.00;;;;16725174;28;20205;-47
2022/08/22 03:25:45;;;;;;;12.73;8.23;;;;;16.60;98692.00;;;;16724148;28;20232;-48
2022/08/22 03:34:22;;;;;;;9.03;8.07;;;;;16.10;98692.00;;;;16723458;28;20216;-48
2022/08/22 03:42:52;;;;;;;12.10;8.60;;;;;16.10;98698.00;;;;16771467;22;20243;-50
2022/08/22 03:51:13;;;;;;;9.47;7.93;;;;;16.30;98704.00;;;;16770301;28;20229;-49
2022/08/22 03:59:35;;;;;;;10.63;8.00;;;;;16.30;98709.00;;;;16719493;28;20593;-50
2022/08/22 04:08:08;;;;;;;9.10;8.20;;;;;15.60;98720.00;;;;16720061;28;20212;-50
2022/08/22 04:16:46;;;;;;;12.17;8.73;;;;;15.40;98735.00;;;;16668565;28;20219;-50
2022/08/22 04:24:58;;;;;;;10.27;8.87;;;;;15.70;98739.00;;;;16718271;28;20318;-49
2022/08/22 04:33:06;;;;;;;10.03;7.73;;;;;15.90;98738.00;;;;16717632;28;20651;-49
2022/08/22 04:41:14;;;;;;;8.23;7.53;;;;;16.00;98735.00;;;;16717569;28;20314;-49
2022/08/22 04:49:20;;;;;;;9.43;8.07;;;;;15.30;98735.00;;;;16717390;28;20193;-50
2022/08/22 04:57:32;;;;;;;9.60;8.63;;;;;15.30;98751.00;;;;16716582;28;20201;-49
2022/08/22 05:05:38;;;;;;;9.63;8.63;;;;;15.80;98745.00;;;;16717262;28;20233;-49
2022/08/22 05:13:46;;;;;;;9.00;8.10;;;;;15.70;98755.00;;;;16721769;28;20228;-49
2022/08/22 05:21:49;;;;;;;11.10;9.27;;;;;15.70;98758.00;;;;16729322;28;20589;-49
2022/08/22 05:29:58;;;;;;;10.00;9.00;;;;;16.10;98750.00;;;;16729990;28;20320;-49
2022/08/22 05:38:01;;;;;;;8.43;7.63;;;;;16.50;98762.00;;;;16729126;28;20235;-49
2022/08/22 05:46:08;;;;;;;9.30;8.40;;;;;16.80;98750.00;;;;16728034;28;20239;-49
2022/08/22 05:54:14;;;;;;;8.40;7.63;;;;;17.60;98742.00;;;;16726600;28;20221;-49
2022/08/22 06:02:20;;;;;;;9.27;7.60;;;;;19.00;98742.00;;;;16727510;28;20240;-49
2022/08/22 06:10:26;;;;;;;7.40;6.70;;;;;18.80;98736.00;;;;16727657;28;20221;-49
2022/08/22 06:18:32;;;;;;;12.00;7.37;;;;;18.90;98736.00;;;;16726569;28;20194;-49
2022/08/22 06:26:37;;;;;;;10.33;6.47;;;;;19.40;98739.00;;;;16726628;28;20600;-49
2022/08/22 06:34:44;;;;;;;8.50;7.50;;;;;19.50;98734.00;;;;16725273;28;20232;-49
2022/08/22 06:42:50;;;;;;;9.00;6.63;;;;;19.80;98745.00;;;;16724695;28;20222;-49
2022/08/22 06:50:57;;;;;;;8.20;7.10;;;;;20.50;98726.00;;;;16723273;28;20226;-49
2022/08/22 06:59:03;;;;;;;8.27;5.63;;;;;21.60;98721.00;;;;16723637;28;20216;-49
2022/08/22 07:07:06;;;;;;;6.10;5.37;;;;;22.20;98719.00;;;;16724713;28;20225;-49
2022/08/22 07:15:18;;;;;;;6.77;5.90;;;;;22.20;98734.00;;;;16722729;28;20320;-49
2022/08/22 07:23:31;;;;;;;8.37;6.80;;;;;22.50;98728.00;;;;16722922;28;20308;-48
2022/08/22 07:31:37;;;;;;;5.80;5.30;;;;;22.70;98728.00;;;;16722103;28;20309;-48
2022/08/22 07:39:51;;;;;;;6.63;5.93;;;;;22.80;98733.00;;;;16720832;28;20319;-49
2022/08/22 07:48:02;;;;;;;6.03;5.47;;;;;23.20;98721.00;;;;16721157;28;20214;-49
2022/08/22 07:56:09;;;;;;;7.53;5.67;;;;;23.30;98736.00;;;;16721589;28;20695;-49
2022/08/22 08:04:16;;;;;;;6.33;5.63;;;;;24.10;98731.00;;;;16720157;28;20321;-48
2022/08/22 08:12:32;;;;;;;5.57;5.10;;;;;24.10;98738.00;;;;16718868;28;20222;-49
2022/08/22 08:20:37;;;;;;;6.67;6.07;;;;;24.60;98730.00;;;;16718901;28;20228;-50
2022/08/22 08:28:43;;;;;;;6.33;5.73;;;;;24.80;98744.00;;;;16717874;28;20568;-49
2022/08/22 08:36:50;;;;;;;6.67;6.07;;;;;25.00;98730.00;;;;16717483;28;20214;-49
2022/08/22 08:45:26;;;;;;;5.90;5.40;;;;;25.00;98736.00;;;;16715493;28;20773;-49
2022/08/22 08:53:51;;;;;;;6.03;5.53;;;;;25.20;98726.00;;;;16702856;28;20666;-49
2022/08/22 09:02:24;;;;;;;5.50;5.10;;;;;25.50;98725.00;;;;16716465;28;20229;-48
2022/08/22 09:10:43;;;;;;;7.70;6.23;;;;;25.70;98709.00;;;;16715438;28;20230;-49
2022/08/22 09:19:23;;;;;;;5.90;5.40;;;;;25.80;98717.00;;;;16715866;28;20539;-49
2022/08/22 09:27:31;;;;;;;6.67;6.07;;;;;26.30;98714.00;;;;16696334;28;20270;-50
2022/08/22 09:35:42;;;;;;;7.03;6.40;;;;;26.20;98715.00;;;;16715813;28;20652;-48
2022/08/22 09:43:49;;;;;;;9.20;6.03;;;;;27.00;98713.00;;;;16757616;22;20236;-52
2022/08/22 09:51:58;;;;;;;6.30;5.80;;;;;27.10;98709.00;;;;16762758;28;20283;-53
2022/08/22 10:00:16;;;;;;;5.50;5.10;;;;;28.20;98709.00;;;;16724374;28;20347;-52
2022/08/22 10:08:31;;;;;;;5.50;5.10;;;;;29.70;98700.00;;;;16785007;28;20232;-53
2022/08/22 10:16:53;;;;;;;6.63;4.47;;;;;29.30;98713.00;;;;16739629;28;20291;-53
2022/08/22 10:25:14;;;;;;;5.33;4.93;;;;;29.30;98695.00;;;;16727733;28;20240;-52
2022/08/22 10:33:23;;;;;;;5.97;5.50;;;;;31.40;98680.00;;;;16726556;28;20353;-53
2022/08/22 10:41:32;;;;;;;5.77;5.30;;;;;30.60;98685.00;;;;16726109;28;20222;-52
2022/08/22 10:49:36;;;;;;;4.07;3.60;;;;;30.70;98676.00;;;;16726090;28;20222;-53
2022/08/22 10:57:57;;;;;;;4.60;4.20;;;;;29.40;98667.00;;;;16725348;28;20677;-53
2022/08/22 11:06:01;;;;;;;5.60;4.87;;;;;31.50;98655.00;;;;16725035;28;20230;-53
2022/08/22 11:14:26;;;;;;;5.40;5.00;;;;;32.20;98659.00;;;;16724187;28;20272;-53
2022/08/22 11:22:33;;;;;;;5.47;4.20;;;;;32.80;98656.00;;;;16724189;28;20253;-51
2022/08/22 11:30:44;;;;;;;4.20;3.90;;;;;34.00;98651.00;;;;16723813;28;20222;-51
2022/08/22 11:38:52;;;;;;;3.80;3.50;;;;;33.80;98638.00;;;;16722905;28;20647;-52
2022/08/22 11:46:58;;;;;;;3.90;3.57;;;;;33.60;98636.00;;;;16722585;28;20332;-51
2022/08/22 11:55:20;;;;;;;4.43;4.00;;;;;32.50;98638.00;;;;16721413;28;20305;-51
2022/08/22 12:03:43;;;;;;;3.97;3.60;;;;;33.70;98636.00;;;;16721146;28;20222;-51
2022/08/22 12:11:56;;;;;;;3.80;3.50;;;;;33.70;98631.00;;;;16720827;28;20316;-52
2022/08/22 12:20:10;;;;;;;4.10;3.77;;;;;33.90;98625.00;;;;16720285;28;20226;-51
2022/08/22 12:28:23;;;;;;;4.50;4.20;;;;;35.10;98621.00;;;;16720265;28;20301;-51
2022/08/22 12:36:55;;;;;;;6.17;4.17;;;;;34.90;98610.00;;;;16720082;28;20917;-51
2022/08/22 12:45:20;;;;;;;3.80;3.50;;;;;34.30;98615.00;;;;16718889;28;20305;-51
2022/08/22 12:53:47;;;;;;;4.40;4.00;;;;;34.30;98603.00;;;;16718947;28;20305;-51
2022/08/22 13:01:52;;;;;;;3.90;3.60;;;;;33.30;98595.00;;;;16718460;28;20724;-50
2022/08/22 13:09:58;;;;;;;3.60;3.30;;;;;36.50;98588.00;;;;16718170;28;20213;-51
2022/08/22 13:18:02;;;;;;;4.10;3.67;;;;;36.50;98594.00;;;;16718418;28;20194;-50
2022/08/22 13:26:10;;;;;;;4.17;3.60;;;;;35.80;98585.00;;;;16717783;28;20218;-51
2022/08/22 13:34:24;;;;;;;4.00;3.67;;;;;35.30;98590.00;;;;16720372;28;20217;-51
2022/08/22 13:42:30;;;;;;;3.90;3.60;;;;;35.80;98587.00;;;;16730337;28;20240;-51
2022/08/22 13:50:33;;;;;;;3.90;3.63;;;;;34.70;98580.00;;;;16730436;28;20270;-51
2022/08/22 13:58:40;;;;;;;4.10;3.67;;;;;37.50;98583.00;;;;16728673;28;20228;-51
2022/08/22 14:06:50;;;;;;;4.37;3.40;;;;;36.80;98578.00;;;;16729671;28;20616;-51
2022/08/22 14:15:00;;;;;;;4.13;3.73;;;;;35.70;98575.00;;;;16727869;28;20220;-51
2022/08/22 14:23:05;;;;;;;4.03;3.67;;;;;36.50;98568.00;;;;16727680;28;20228;-50
2022/08/22 14:31:10;;;;;;;4.97;4.47;;;;;34.00;98574.00;;;;16727704;28;20233;-50
2022/08/22 14:39:22;;;;;;;4.20;3.67;;;;;34.90;98570.00;;;;16727475;28;20190;-52
2022/08/22 14:47:30;;;;;;;4.27;3.93;;;;;37.80;98563.00;;;;16726231;28;20828;-51
2022/08/22 14:55:33;;;;;;;3.60;3.30;;;;;37.90;98562.00;;;;16726304;28;20718;-50
2022/08/22 15:03:38;;;;;;;5.10;3.30;;;;;35.70;98561.00;;;;16725384;28;20226;-50
2022/08/22 15:11:40;;;;;;;4.60;4.20;;;;;37.70;98550.00;;;;16724018;28;20213;-51
2022/08/22 15:19:47;;;;;;;4.77;3.53;;;;;38.40;98555.00;;;;16725351;28;20706;-51
2022/08/22 15:27:54;;;;;;;3.70;3.40;;;;;38.60;98546.00;;;;16739633;28;20322;-51
2022/08/22 15:36:11;;;;;;;3.63;3.30;;;;;36.70;98550.00;;;;16723658;28;20210;-51
2022/08/22 15:44:26;;;;;;;4.23;3.93;;;;;36.70;98541.00;;;;16723513;28;20222;-50
2022/08/22 15:52:32;;;;;;;5.33;3.57;;;;;35.20;98524.00;;;;16721974;28;20229;-51
2022/08/22 16:00:38;;;;;;;3.97;3.67;;;;;35.80;98522.00;;;;16721148;28;20218;-52
2022/08/22 16:08:50;;;;;;;4.20;3.67;;;;;36.90;98534.00;;;;16720812;28;20226;-52
2022/08/22 16:16:56;;;;;;;4.00;3.30;;;;;37.40;98534.00;;;;16721486;28;20222;-51
2022/08/22 16:25:07;;;;;;;3.50;3.20;;;;;37.50;98535.00;;;;16720950;28;20309;-51
2022/08/22 16:33:10;;;;;;;3.90;3.60;;;;;38.50;98537.00;;;;16720618;28;20210;-51
2022/08/22 16:41:35;;;;;;;3.77;3.53;;;;;37.20;98537.00;;;;16719746;28;20230;-52
2022/08/22 16:49:41;;;;;;;3.40;3.20;;;;;37.10;98537.00;;;;16719077;28;20222;-52
2022/08/22 16:57:53;;;;;;;4.20;3.80;;;;;37.80;98527.00;;;;16718148;28;20607;-51
2022/08/22 17:06:01;;;;;;;5.00;3.80;;;;;37.00;98531.00;;;;16718967;28;20391;-50
2022/08/22 17:14:27;;;;;;;4.33;3.93;;;;;35.60;98538.00;;;;16730703;28;20355;-49
2022/08/22 17:22:36;;;;;;;4.20;3.40;;;;;35.80;98546.00;;;;16732297;28;20863;-50
2022/08/22 17:30:46;;;;;;;5.10;3.53;;;;;35.30;98539.00;;;;16732276;28;20646;-49
2022/08/22 17:39:09;;;;;;;3.83;3.03;;;;;35.00;98550.00;;;;16731439;28;20719;-49
2022/08/22 17:47:17;;;;;;;4.40;3.37;;;;;34.40;98559.00;;;;16730474;28;20221;-50
2022/08/22 17:55:22;;;;;;;5.90;5.40;;;;;30.40;98562.00;;;;16729753;28;20308;-49
2022/08/22 18:03:30;;;;;;;3.73;3.43;;;;;28.20;98582.00;;;;16729811;28;20238;-49
2022/08/22 18:11:36;;;;;;;3.80;3.50;;;;;26.40;98586.00;;;;16728667;28;20225;-51
2022/08/22 18:19:45;;;;;;;4.87;4.00;;;;;25.90;98603.00;;;;16727351;28;20190;-50
2022/08/22 18:27:51;;;;;;;5.03;4.57;;;;;25.30;98604.00;;;;16727716;28;20305;-51
2022/08/22 18:36:03;;;;;;;6.17;3.97;;;;;24.90;98617.00;;;;16728057;28;20305;-49
2022/08/22 18:44:10;;;;;;;5.00;4.50;;;;;24.10;98628.00;;;;16727412;28;20221;-50
2022/08/22 18:52:32;;;;;;;5.47;4.70;;;;;23.70;98629.00;;;;16726069;28;20946;-51
2022/08/22 19:00:54;;;;;;;4.87;4.40;;;;;23.60;98638.00;;;;16725598;28;20218;-50
2022/08/22 19:09:25;;;;;;;4.70;4.20;;;;;23.20;98635.00;;;;16725986;28;20301;-51
2022/08/22 19:17:50;;;;;;;6.30;4.50;;;;;23.00;98656.00;;;;16724182;28;20209;-51
2022/08/22 19:26:26;;;;;;;5.57;5.07;;;;;22.60;98658.00;;;;16724237;28;20364;-50
2022/08/22 19:34:38;;;;;;;6.43;4.33;;;;;22.60;98661.00;;;;16723577;28;20214;-49
2022/08/22 19:42:45;;;;;;;4.50;4.10;;;;;22.40;98657.00;;;;16722860;28;20318;-51
2022/08/22 19:51:05;;;;;;;5.13;4.37;;;;;22.20;98657.00;;;;16722432;28;20241;-51
2022/08/22 19:59:19;;;;;;;5.20;4.10;;;;;22.00;98661.00;;;;16721686;28;20278;-50
2022/08/22 20:07:29;;;;;;;5.47;4.33;;;;;21.80;98657.00;;;;16721781;28;20233;-52
2022/08/22 20:15:35;;;;;;;6.57;5.23;;;;;21.70;98658.00;;;;16720587;28;20210;-51
2022/08/22 20:23:38;;;;;;;6.50;4.97;;;;;21.20;98664.00;;;;16720305;28;20214;-50
2022/08/22 20:31:42;;;;;;;5.33;4.83;;;;;21.00;98669.00;;;;16720142;28;20221;-51
2022/08/22 20:39:51;;;;;;;7.73;4.60;;;;;21.10;98676.00;;;;16719673;28;20198;-51
2022/08/22 20:47:54;;;;;;;4.30;3.90;;;;;21.30;98692.00;;;;16718534;28;21042;-51
2022/08/22 20:55:57;;;;;;;4.87;4.40;;;;;20.80;98687.00;;;;16718685;28;20649;-52
2022/08/22 21:04:04;;;;;;;6.87;4.63;;;;;21.20;98688.00;;;;16720416;28;20225;-50
2022/08/22 21:12:08;;;;;;;5.23;4.43;;;;;20.70;98683.00;;;;16718716;28;20222;-50
2022/08/22 21:20:20;;;;;;;5.73;4.73;;;;;20.50;98679.00;;;;16718479;28;20217;-49
2022/08/22 21:28:28;;;;;;;5.17;4.40;;;;;20.60;98692.00;;;;16718050;28;20228;-50
2022/08/22 21:36:36;;;;;;;5.00;4.60;;;;;20.90;98693.00;;;;16718185;28;20318;-51
2022/08/22 21:44:40;;;;;;;4.73;3.90;;;;;21.90;98690.00;;;;16718671;28;20229;-50
2022/08/22 21:52:59;;;;;;;3.87;3.50;;;;;22.90;98700.00;;;;16716478;28;20225;-52
2022/08/22 22:01:03;;;;;;;5.40;3.30;;;;;23.10;98699.00;;;;16729401;28;20694;-52
2022/08/22 22:09:07;;;;;;;5.00;3.37;;;;;23.00;98707.00;;;;16729321;28;20213;-51
2022/08/22 22:17:10;;;;;;;5.67;3.20;;;;;23.00;98712.00;;;;16728236;28;20210;-50
2022/08/22 22:25:15;;;;;;;3.93;3.13;;;;;23.00;98711.00;;;;16728407;28;20702;-49
2022/08/22 22:33:18;;;;;;;5.20;2.80;;;;;23.10;98718.00;;;;16727515;28;20224;-51
2022/08/22 22:41:24;;;;;;;3.50;3.20;;;;;23.10;98717.00;;;;16726526;28;20621;-52
2022/08/22 22:49:26;;;;;;;3.10;2.90;;;;;23.10;98717.00;;;;16728243;28;20292;-52
2022/08/22 22:57:30;;;;;;;4.93;3.40;;;;;22.20;98732.00;;;;16725457;28;20225;-51
2022/08/22 23:05:34;;;;;;;3.90;3.60;;;;;20.40;98745.00;;;;16724804;28;20303;-51
2022/08/22 23:13:37;;;;;;;6.43;3.93;;;;;19.90;98758.00;;;;16725116;28;20305;-51
2022/08/22 23:21:41;;;;;;;4.60;4.20;;;;;19.60;98764.00;;;;16724304;28;20254;-51
2022/08/22 23:29:45;;;;;;;4.30;3.77;;;;;19.60;98770.00;;;;16724661;28;20698;-51
2022/08/22 23:37:48;;;;;;;6.23;4.53;;;;;19.60;98779.00;;;;16723616;28;20198;-50
2022/08/22 23:45:52;;;;;;;6.47;4.10;;;;;19.00;98781.00;;;;16722675;28;20229;-50
2022/08/22 23:53:55;;;;;;;4.30;3.87;;;;;18.90;98780.00;;;;16719639;28;20305;-51
